createdAt,value
2022-12-24T00:02:14.479Z,13.13
2022-12-24T00:06:21.400Z,13.14
2022-12-24T00:10:24.908Z,13.17
2022-12-24T00:14:28.752Z,13.19
2022-12-24T00:18:32.141Z,13.17
2022-12-24T00:22:37.211Z,13.18
2022-12-24T00:26:40.974Z,13.26
2022-12-24T00:30:45.098Z,13.25
2022-12-24T00:34:48.426Z,13.31
2022-12-24T00:38:53.580Z,13.28
2022-12-24T00:42:57.029Z,13.31
2022-12-24T00:47:01.935Z,13.34
2022-12-24T00:51:07.706Z,13.37
2022-12-24T00:55:13.736Z,13.40
2022-12-24T00:59:17.455Z,13.39
2022-12-24T01:03:21.071Z,13.39
2022-12-24T01:07:24.799Z,13.38
2022-12-24T01:11:29.784Z,13.41
2022-12-24T01:15:33.511Z,13.41
2022-12-24T01:19:37.135Z,13.41
2022-12-24T01:23:40.607Z,13.41
2022-12-24T01:27:45.704Z,13.38
2022-12-24T01:31:49.393Z,13.37
2022-12-24T01:35:52.875Z,13.35
2022-12-24T01:40:17.329Z,13.34
2022-12-24T01:44:31.597Z,13.27
2022-12-24T01:48:42.355Z,13.29
2022-12-24T01:52:46.232Z,13.32
2022-12-24T01:56:54.447Z,13.34
2022-12-24T02:01:00.001Z,13.35
2022-12-24T02:05:07.090Z,13.37
2022-12-24T02:09:10.750Z,13.39
2022-12-24T02:13:14.914Z,13.42
2022-12-24T02:17:29.390Z,13.44
2022-12-24T02:22:03.959Z,13.46
2022-12-24T02:26:26.112Z,13.48
2022-12-24T02:30:35.555Z,13.50
2022-12-24T02:34:46.622Z,13.48
2022-12-24T02:38:54.282Z,13.51
2022-12-24T02:43:02.971Z,13.55
2022-12-24T02:47:10.087Z,13.54
2022-12-24T02:51:14.045Z,13.56
2022-12-24T02:55:22.875Z,13.57
2022-12-24T02:59:38.709Z,13.57
2022-12-24T03:04:00.942Z,13.59
2022-12-24T03:08:09.192Z,13.59
2022-12-24T03:12:17.723Z,13.60
2022-12-24T03:16:24.804Z,13.61
2022-12-24T03:20:35.402Z,13.60
2022-12-24T03:24:40.031Z,13.58
2022-12-24T03:28:44.543Z,13.55
2022-12-24T03:32:48.845Z,13.49
2022-12-24T03:36:53.745Z,13.46
2022-12-24T03:40:57.483Z,13.42
2022-12-24T03:45:00.876Z,13.39
2022-12-24T03:49:04.657Z,13.40
2022-12-24T03:53:09.863Z,13.37
2022-12-24T03:57:13.416Z,13.31
2022-12-24T04:01:17.758Z,13.26
2022-12-24T04:05:22.359Z,13.24
2022-12-24T04:09:27.528Z,13.21
2022-12-24T04:13:31.130Z,13.19
2022-12-24T04:17:34.576Z,13.15
2022-12-24T04:21:38.166Z,13.14
2022-12-24T04:25:42.817Z,13.20
2022-12-24T04:29:46.612Z,13.20
2022-12-24T04:33:52.342Z,13.22
2022-12-24T04:37:55.846Z,13.14
2022-12-24T04:42:00.467Z,12.97
2022-12-24T04:46:08.810Z,12.67
2022-12-24T04:50:13.009Z,12.34
2022-12-24T04:54:17.241Z,12.07
2022-12-24T04:58:22.073Z,11.88
2022-12-24T05:02:25.922Z,11.70
2022-12-24T05:06:33.007Z,11.57
2022-12-24T05:10:42.820Z,11.49
2022-12-24T05:14:47.878Z,11.45
2022-12-24T05:18:52.082Z,11.38
2022-12-24T05:23:12.961Z,11.30
2022-12-24T05:27:16.708Z,11.29
2022-12-24T05:31:21.940Z,11.29
2022-12-24T05:35:25.752Z,11.27
2022-12-24T05:39:29.179Z,11.26
2022-12-24T05:43:33.066Z,11.28
2022-12-24T05:51:41.950Z,11.37
2022-12-24T05:55:46.235Z,11.38
2022-12-24T05:59:50.299Z,11.38
2022-12-24T06:03:54.215Z,11.37
2022-12-24T06:07:59.402Z,11.40
2022-12-24T06:12:02.773Z,11.41
2022-12-24T06:16:09.640Z,11.43
2022-12-24T06:20:13.400Z,11.44
2022-12-24T06:24:18.933Z,11.45
2022-12-24T06:28:22.355Z,11.46
2022-12-24T06:32:25.951Z,11.50
2022-12-24T06:36:29.189Z,11.52
2022-12-24T06:40:34.229Z,11.53
2022-12-24T06:44:37.494Z,11.47
2022-12-24T06:48:41.172Z,11.50
2022-12-24T06:52:44.558Z,11.52
2022-12-24T06:56:49.634Z,11.52
2022-12-24T07:00:53.044Z,11.51
2022-12-24T07:04:56.668Z,11.52
2022-12-24T07:09:00.047Z,11.54
2022-12-24T07:13:05.355Z,11.50
2022-12-24T07:17:08.917Z,11.50
2022-12-24T07:21:12.889Z,11.53
2022-12-24T07:25:19.872Z,11.53
2022-12-24T07:29:25.123Z,11.56
2022-12-24T07:33:28.695Z,11.58
2022-12-24T07:37:32.251Z,11.59
2022-12-24T07:41:41.585Z,11.62
2022-12-24T07:45:47.097Z,11.67
2022-12-24T07:49:50.329Z,11.69
2022-12-24T07:53:53.963Z,11.69
2022-12-24T07:57:57.439Z,11.70
2022-12-24T08:02:02.875Z,11.71
2022-12-24T08:06:06.737Z,11.73
2022-12-24T08:10:11.240Z,11.73
2022-12-24T08:14:14.545Z,11.81
2022-12-24T08:18:19.570Z,11.83
2022-12-24T08:22:23.077Z,11.83
2022-12-24T08:26:26.770Z,11.84
2022-12-24T08:30:30.200Z,11.90
2022-12-24T08:34:36.878Z,11.97
2022-12-24T08:38:40.339Z,12.02
2022-12-24T08:42:44.205Z,12.11
2022-12-24T08:46:47.632Z,12.16
2022-12-24T08:50:52.662Z,12.21
2022-12-24T08:54:55.904Z,12.20
2022-12-24T08:58:59.633Z,12.20
2022-12-24T09:03:03.102Z,12.20
2022-12-24T09:07:08.639Z,12.21
2022-12-24T09:11:13.958Z,12.22
2022-12-24T09:15:17.616Z,12.37
2022-12-24T09:19:20.935Z,12.45
2022-12-24T09:23:26.427Z,12.53
2022-12-24T09:27:31.380Z,12.58
2022-12-24T09:31:35.755Z,12.60
2022-12-24T09:35:40.441Z,12.63
2022-12-24T09:39:45.561Z,12.70
2022-12-24T09:43:54.656Z,12.73
2022-12-24T09:48:01.509Z,12.83
2022-12-24T09:52:09.728Z,12.84
2022-12-24T09:56:20.681Z,12.81
2022-12-24T10:00:27.490Z,12.88
2022-12-24T10:04:33.913Z,12.93
2022-12-24T10:08:48.801Z,12.91
2022-12-24T10:13:04.909Z,12.93
2022-12-24T10:17:27.195Z,12.92
2022-12-24T10:21:44.006Z,12.94
2022-12-24T10:25:54.029Z,12.87
2022-12-24T10:30:04.536Z,12.80
2022-12-24T10:34:15.382Z,12.67
2022-12-24T10:38:18.943Z,12.55
2022-12-24T10:42:25.084Z,12.46
2022-12-24T10:46:36.760Z,12.37
2022-12-24T10:50:44.715Z,12.29
2022-12-24T10:55:10.075Z,12.22
2022-12-24T10:59:26.986Z,12.21
2022-12-24T11:03:35.422Z,12.18
2022-12-24T11:07:38.879Z,12.17
2022-12-24T11:11:43.553Z,12.26
2022-12-24T11:15:47.226Z,12.33
2022-12-24T11:19:52.871Z,12.39
2022-12-24T11:23:59.077Z,12.41
2022-12-24T11:28:14.444Z,12.43
2022-12-24T11:32:20.285Z,12.44
2022-12-24T11:36:27.972Z,12.48
2022-12-24T11:40:36.799Z,12.51
2022-12-24T11:44:50.478Z,12.52
2022-12-24T11:49:14.502Z,12.56
2022-12-24T11:53:27.015Z,12.68
2022-12-24T11:57:38.996Z,12.74
2022-12-24T12:01:52.321Z,12.83
2022-12-24T12:05:57.551Z,12.86
2022-12-24T12:10:09.870Z,12.97
2022-12-24T12:14:21.944Z,13.05
2022-12-24T12:18:29.706Z,13.14
2022-12-24T12:22:40.640Z,13.26
2022-12-24T12:26:46.995Z,13.36
2022-12-24T12:31:01.367Z,13.50
2022-12-24T12:35:18.141Z,13.67
2022-12-24T12:39:21.880Z,13.82
2022-12-24T12:43:43.200Z,13.99
2022-12-24T12:48:01.633Z,14.08
2022-12-24T12:52:15.843Z,14.10
2022-12-24T12:56:29.317Z,14.08
2022-12-24T13:00:38.738Z,14.06
2022-12-24T13:05:21.118Z,14.02
2022-12-24T13:10:06.667Z,14.06
2022-12-24T13:14:33.084Z,14.11
2022-12-24T13:19:06.337Z,14.14
2022-12-24T13:23:15.672Z,14.17
2022-12-24T13:27:22.708Z,14.19
2022-12-24T13:31:30.292Z,14.25
2022-12-24T13:35:41.075Z,14.27
2022-12-24T13:40:03.494Z,14.24
2022-12-24T13:44:33.265Z,14.22
2022-12-24T13:48:36.978Z,14.13
2022-12-24T13:52:53.135Z,14.04
2022-12-24T13:56:56.695Z,13.90
2022-12-24T14:01:03.460Z,13.86
2022-12-24T14:05:10.626Z,13.83
2022-12-24T14:09:20.028Z,13.79
2022-12-24T14:13:56.045Z,13.75
2022-12-24T14:17:59.724Z,13.70
2022-12-24T14:22:06.718Z,13.68
2022-12-24T14:26:17.561Z,13.65
2022-12-24T14:30:24.318Z,13.61
2022-12-24T14:34:28.262Z,13.57
2022-12-24T14:38:32.295Z,13.53
2022-12-24T14:42:44.215Z,13.51
2022-12-24T14:46:54.495Z,13.46
2022-12-24T14:51:07.340Z,13.43
2022-12-24T14:55:29.657Z,13.43
2022-12-24T14:59:43.840Z,13.39
2022-12-24T15:03:47.281Z,13.34
2022-12-24T15:07:57.618Z,13.30
2022-12-24T15:12:04.296Z,13.29
2022-12-24T15:16:12.751Z,13.24
2022-12-24T15:20:19.812Z,13.21
2022-12-24T15:24:28.605Z,13.18
2022-12-24T15:28:39.069Z,13.15
2022-12-24T15:32:44.112Z,13.12
2022-12-24T15:36:47.585Z,13.10
2022-12-24T15:40:51.502Z,13.11
2022-12-24T15:45:00.925Z,13.09
2022-12-24T15:49:06.110Z,13.07
2022-12-24T15:53:19.472Z,13.07
2022-12-24T15:57:27.469Z,13.05
2022-12-24T16:01:30.924Z,13.03
2022-12-24T16:05:38.066Z,12.99
2022-12-24T16:09:46.544Z,12.96
2022-12-24T16:14:12.660Z,12.93
2022-12-24T16:18:24.427Z,12.90
2022-12-24T16:22:35.731Z,12.88
2022-12-24T16:26:40.653Z,12.87
2022-12-24T16:30:47.535Z,12.92
2022-12-24T16:34:51.297Z,12.93
2022-12-24T16:39:13.464Z,12.95
2022-12-24T16:43:33.880Z,12.92
2022-12-24T16:47:42.711Z,12.90
2022-12-24T16:51:47.368Z,12.93
2022-12-24T16:55:53.829Z,12.97
2022-12-24T16:59:57.919Z,13.03
2022-12-24T17:04:01.503Z,13.04
2022-12-24T17:08:05.547Z,13.09
2022-12-24T17:12:11.513Z,13.10
2022-12-24T17:16:14.916Z,13.10
2022-12-24T17:20:23.781Z,13.10
2022-12-24T17:24:27.875Z,13.10
2022-12-24T17:28:32.856Z,13.11
2022-12-24T17:32:37.612Z,13.11
2022-12-24T17:36:41.406Z,13.08
2022-12-24T17:40:44.933Z,13.05
2022-12-24T17:49:07.037Z,13.02
2022-12-24T17:53:10.577Z,12.97
2022-12-24T17:57:14.319Z,13.00
2022-12-24T18:01:19.787Z,12.98
2022-12-24T18:05:24.914Z,12.95
2022-12-24T18:09:28.283Z,12.92
2022-12-24T18:13:31.659Z,12.89
2022-12-24T18:17:35.563Z,12.84
2022-12-24T18:21:41.323Z,12.80
2022-12-24T18:25:44.552Z,12.76
2022-12-24T18:29:48.090Z,12.72
2022-12-24T18:33:53.048Z,12.69
2022-12-24T18:37:58.156Z,12.68
2022-12-24T18:42:01.769Z,12.65
2022-12-24T18:46:08.938Z,12.65
2022-12-24T18:50:12.891Z,12.65
2022-12-24T18:54:17.932Z,12.62
2022-12-24T18:58:21.807Z,12.60
2022-12-24T19:02:25.348Z,12.54
2022-12-24T19:06:29.067Z,12.47
2022-12-24T19:10:34.081Z,12.41
2022-12-24T19:14:37.632Z,12.34
2022-12-24T19:18:42.248Z,12.30
2022-12-24T19:22:45.730Z,12.22
2022-12-24T19:26:50.843Z,12.13
2022-12-24T19:30:54.428Z,12.03
2022-12-24T19:34:57.810Z,11.87
2022-12-24T19:39:01.275Z,11.86
2022-12-24T19:43:06.764Z,11.84
2022-12-24T19:47:10.222Z,11.85
2022-12-24T19:51:14.030Z,11.84
2022-12-24T19:55:17.692Z,11.84
2022-12-24T19:59:25.549Z,11.84
2022-12-24T20:03:28.985Z,11.83
2022-12-24T20:07:32.412Z,11.82
2022-12-24T20:11:36.825Z,11.82
2022-12-24T20:15:43.228Z,11.82
2022-12-24T20:19:46.860Z,11.79
2022-12-24T20:23:51.032Z,11.75
2022-12-24T20:27:54.632Z,11.70
2022-12-24T20:31:59.675Z,11.71
2022-12-24T20:36:04.137Z,11.69
2022-12-24T20:40:08.903Z,11.68
2022-12-24T20:44:12.841Z,11.66
2022-12-24T20:48:17.538Z,11.66
2022-12-24T20:52:21.142Z,11.67
2022-12-24T20:56:27.416Z,11.68
2022-12-24T21:00:31.073Z,11.68
2022-12-24T21:04:35.984Z,11.67
2022-12-24T21:08:39.370Z,11.57
2022-12-24T21:12:57.446Z,11.53
2022-12-24T21:17:01.119Z,11.56
2022-12-24T21:21:06.242Z,11.53
2022-12-24T21:25:11.235Z,11.49
2022-12-24T21:29:15.267Z,11.43
2022-12-24T21:33:19.138Z,11.43
2022-12-24T21:37:23.899Z,11.44
2022-12-24T21:41:27.841Z,11.44
2022-12-24T21:45:31.510Z,11.45
2022-12-24T21:49:53.162Z,11.48
2022-12-24T21:54:15.390Z,11.49
2022-12-24T21:58:18.765Z,11.47
2022-12-24T22:02:27.162Z,11.45
2022-12-24T22:06:47.952Z,11.38
2022-12-24T22:11:10.482Z,11.37
2022-12-24T22:15:14.348Z,11.32
2022-12-24T22:19:17.739Z,11.30
2022-12-24T22:23:21.740Z,11.29
2022-12-24T22:27:26.705Z,11.26
2022-12-24T22:31:30.433Z,11.27
2022-12-24T22:35:34.268Z,11.27
2022-12-24T22:39:39.241Z,11.22
2022-12-24T22:43:45.580Z,11.22
2022-12-24T22:47:49.197Z,11.24
2022-12-24T22:51:52.548Z,11.24
2022-12-24T22:56:00.097Z,11.23
2022-12-24T23:00:13.456Z,11.23
2022-12-24T23:04:17.173Z,11.18
2022-12-24T23:08:20.768Z,11.20
2022-12-24T23:12:37.993Z,11.18
2022-12-24T23:16:43.201Z,11.18
2022-12-24T23:20:47.129Z,11.12
2022-12-24T23:24:50.683Z,11.16
2022-12-24T23:28:54.412Z,11.12
2022-12-24T23:32:59.475Z,11.11
2022-12-24T23:37:03.200Z,11.07
2022-12-24T23:41:08.948Z,10.94
2022-12-24T23:45:13.108Z,10.95
2022-12-24T23:49:17.932Z,10.90
2022-12-24T23:53:21.710Z,10.87
2022-12-24T23:57:25.413Z,10.84
